sensor_id;sensor_type;location;lat;lon;timestamp;P1;durP1;ratioP1;P2;durP2;ratioP2
43803;SDS011;29430;52.924;-2.388;2023-04-15T00:00:57;14.60;;;9.45;;
43803;SDS011;29430;52.924;-2.388;2023-04-15T00:05:50;14.82;;;11.02;;
43803;SDS011;29430;52.924;-2.388;2023-04-15T00:10:42;17.50;;;12.23;;
43803;SDS011;29430;52.924;-2.388;2023-04-15T00:15:34;22.48;;;11.43;;
43803;SDS011;29430;52.924;-2.388;2023-04-15T00:20:26;19.23;;;11.13;;
43803;SDS011;29430;52.924;-2.388;2023-04-15T00:25:18;14.52;;;10.38;;
43803;SDS011;29430;52.924;-2.388;2023-04-15T00:30:09;16.45;;;10.40;;
43803;SDS011;29430;52.924;-2.388;2023-04-15T00:35:02;31.05;;;11.13;;
43803;SDS011;29430;52.924;-2.388;2023-04-15T00:39:54;15.88;;;10.38;;
43803;SDS011;29430;52.924;-2.388;2023-04-15T00:44:46;12.32;;;7.70;;
43803;SDS011;29430;52.924;-2.388;2023-04-15T00:49:37;15.55;;;9.48;;
43803;SDS011;29430;52.924;-2.388;2023-04-15T00:54:29;20.48;;;11.05;;
43803;SDS011;29430;52.924;-2.388;2023-04-15T00:59:20;15.27;;;9.88;;
43803;SDS011;29430;52.924;-2.388;2023-04-15T01:04:12;15.02;;;10.30;;
43803;SDS011;29430;52.924;-2.388;2023-04-15T01:09:04;10.85;;;7.55;;
43803;SDS011;29430;52.924;-2.388;2023-04-15T01:13:57;12.38;;;8.65;;
43803;SDS011;29430;52.924;-2.388;2023-04-15T01:18:49;10.45;;;7.50;;
43803;SDS011;29430;52.924;-2.388;2023-04-15T01:23:40;11.70;;;7.82;;
43803;SDS011;29430;52.924;-2.388;2023-04-15T01:28:37;11.75;;;8.75;;
43803;SDS011;29430;52.924;-2.388;2023-04-15T01:33:29;11.05;;;7.35;;
43803;SDS011;29430;52.924;-2.388;2023-04-15T01:38:20;11.68;;;8.02;;
43803;SDS011;29430;52.924;-2.388;2023-04-15T01:43:12;12.52;;;8.02;;
43803;SDS011;29430;52.924;-2.388;2023-04-15T01:48:05;11.95;;;8.30;;
43803;SDS011;29430;52.924;-2.388;2023-04-15T01:52:57;15.80;;;9.40;;
43803;SDS011;29430;52.924;-2.388;2023-04-15T01:57:49;12.18;;;8.15;;
43803;SDS011;29430;52.924;-2.388;2023-04-15T02:02:40;13.35;;;8.35;;
43803;SDS011;29430;52.924;-2.388;2023-04-15T02:07:32;11.27;;;7.57;;
43803;SDS011;29430;52.924;-2.388;2023-04-15T02:12:24;14.27;;;8.20;;
43803;SDS011;29430;52.924;-2.388;2023-04-15T02:17:16;13.30;;;8.15;;
43803;SDS011;29430;52.924;-2.388;2023-04-15T02:22:07;14.48;;;8.75;;
43803;SDS011;29430;52.924;-2.388;2023-04-15T02:26:59;16.27;;;10.23;;
43803;SDS011;29430;52.924;-2.388;2023-04-15T02:31:52;14.90;;;9.50;;
43803;SDS011;29430;52.924;-2.388;2023-04-15T02:36:43;15.98;;;9.60;;
43803;SDS011;29430;52.924;-2.388;2023-04-15T02:41:37;17.77;;;10.00;;
43803;SDS011;29430;52.924;-2.388;2023-04-15T02:46:28;14.52;;;9.90;;
43803;SDS011;29430;52.924;-2.388;2023-04-15T02:51:20;15.88;;;9.88;;
43803;SDS011;29430;52.924;-2.388;2023-04-15T02:56:13;12.35;;;8.13;;
43803;SDS011;29430;52.924;-2.388;2023-04-15T03:01:09;19.45;;;10.32;;
43803;SDS011;29430;52.924;-2.388;2023-04-15T03:06:01;14.18;;;8.43;;
43803;SDS011;29430;52.924;-2.388;2023-04-15T03:10:53;16.15;;;9.07;;
43803;SDS011;29430;52.924;-2.388;2023-04-15T03:15:45;15.63;;;8.93;;
43803;SDS011;29430;52.924;-2.388;2023-04-15T03:20:37;13.32;;;8.65;;
43803;SDS011;29430;52.924;-2.388;2023-04-15T03:25:29;14.95;;;8.82;;
43803;SDS011;29430;52.924;-2.388;2023-04-15T03:30:20;14.63;;;7.90;;
43803;SDS011;29430;52.924;-2.388;2023-04-15T03:35:12;13.10;;;8.05;;
43803;SDS011;29430;52.924;-2.388;2023-04-15T03:40:04;13.55;;;8.73;;
43803;SDS011;29430;52.924;-2.388;2023-04-15T03:44:56;11.02;;;7.55;;
43803;SDS011;29430;52.924;-2.388;2023-04-15T03:49:47;14.18;;;7.57;;
43803;SDS011;29430;52.924;-2.388;2023-04-15T03:54:39;12.52;;;7.20;;
43803;SDS011;29430;52.924;-2.388;2023-04-15T03:59:31;18.05;;;8.00;;
43803;SDS011;29430;52.924;-2.388;2023-04-15T04:04:22;12.70;;;7.53;;
43803;SDS011;29430;52.924;-2.388;2023-04-15T04:09:14;12.15;;;6.88;;
43803;SDS011;29430;52.924;-2.388;2023-04-15T04:14:06;13.77;;;7.45;;
43803;SDS011;29430;52.924;-2.388;2023-04-15T04:18:58;16.75;;;7.90;;
43803;SDS011;29430;52.924;-2.388;2023-04-15T04:23:49;13.40;;;8.20;;
43803;SDS011;29430;52.924;-2.388;2023-04-15T04:28:41;17.75;;;10.13;;
43803;SDS011;29430;52.924;-2.388;2023-04-15T04:33:33;50.70;;;11.90;;
43803;SDS011;29430;52.924;-2.388;2023-04-15T04:38:24;96.45;;;12.65;;
43803;SDS011;29430;52.924;-2.388;2023-04-15T04:43:16;65.72;;;11.18;;
43803;SDS011;29430;52.924;-2.388;2023-04-15T04:48:08;73.47;;;11.52;;
43803;SDS011;29430;52.924;-2.388;2023-04-15T04:53:00;140.52;;;13.98;;
43803;SDS011;29430;52.924;-2.388;2023-04-15T04:57:52;175.77;;;15.27;;
43803;SDS011;29430;52.924;-2.388;2023-04-15T05:02:44;46.58;;;10.02;;
43803;SDS011;29430;52.924;-2.388;2023-04-15T05:07:36;71.00;;;10.68;;
43803;SDS011;29430;52.924;-2.388;2023-04-15T05:12:29;142.65;;;14.45;;
43803;SDS011;29430;52.924;-2.388;2023-04-15T05:17:21;56.80;;;11.57;;
43803;SDS011;29430;52.924;-2.388;2023-04-15T05:22:13;13.70;;;8.15;;
43803;SDS011;29430;52.924;-2.388;2023-04-15T05:27:05;14.88;;;7.72;;
43803;SDS011;29430;52.924;-2.388;2023-04-15T05:31:56;56.33;;;10.32;;
43803;SDS011;29430;52.924;-2.388;2023-04-15T05:36:48;50.63;;;9.77;;
43803;SDS011;29430;52.924;-2.388;2023-04-15T05:41:39;18.05;;;9.52;;
43803;SDS011;29430;52.924;-2.388;2023-04-15T05:46:31;21.17;;;7.95;;
43803;SDS011;29430;52.924;-2.388;2023-04-15T05:51:23;13.60;;;8.38;;
43803;SDS011;29430;52.924;-2.388;2023-04-15T05:56:14;13.05;;;8.02;;
43803;SDS011;29430;52.924;-2.388;2023-04-15T06:01:06;16.42;;;8.18;;
43803;SDS011;29430;52.924;-2.388;2023-04-15T06:05:58;14.98;;;9.20;;
43803;SDS011;29430;52.924;-2.388;2023-04-15T06:10:51;14.82;;;7.82;;
43803;SDS011;29430;52.924;-2.388;2023-04-15T06:15:42;48.53;;;9.38;;
43803;SDS011;29430;52.924;-2.388;2023-04-15T06:20:34;13.98;;;7.38;;
43803;SDS011;29430;52.924;-2.388;2023-04-15T06:25:26;15.05;;;8.85;;
43803;SDS011;29430;52.924;-2.388;2023-04-15T06:30:18;14.15;;;8.15;;
43803;SDS011;29430;52.924;-2.388;2023-04-15T06:35:10;15.05;;;7.05;;
43803;SDS011;29430;52.924;-2.388;2023-04-15T06:40:02;13.98;;;8.00;;
43803;SDS011;29430;52.924;-2.388;2023-04-15T06:44:55;24.45;;;6.88;;
43803;SDS011;29430;52.924;-2.388;2023-04-15T06:49:46;13.80;;;8.35;;
43803;SDS011;29430;52.924;-2.388;2023-04-15T06:54:38;10.75;;;6.75;;
43803;SDS011;29430;52.924;-2.388;2023-04-15T06:59:30;15.13;;;7.93;;
43803;SDS011;29430;52.924;-2.388;2023-04-15T07:04:21;9.85;;;6.18;;
43803;SDS011;29430;52.924;-2.388;2023-04-15T07:09:14;10.15;;;6.07;;
43803;SDS011;29430;52.924;-2.388;2023-04-15T07:14:06;10.20;;;6.20;;
43803;SDS011;29430;52.924;-2.388;2023-04-15T07:18:58;11.55;;;7.05;;
43803;SDS011;29430;52.924;-2.388;2023-04-15T07:23:50;14.80;;;6.57;;
43803;SDS011;29430;52.924;-2.388;2023-04-15T07:28:42;10.10;;;6.53;;
43803;SDS011;29430;52.924;-2.388;2023-04-15T07:33:35;10.68;;;6.72;;
43803;SDS011;29430;52.924;-2.388;2023-04-15T07:38:27;10.20;;;6.75;;
43803;SDS011;29430;52.924;-2.388;2023-04-15T07:43:19;10.68;;;7.22;;
43803;SDS011;29430;52.924;-2.388;2023-04-15T07:48:11;11.52;;;7.35;;
43803;SDS011;29430;52.924;-2.388;2023-04-15T07:53:03;8.68;;;6.25;;
43803;SDS011;29430;52.924;-2.388;2023-04-15T07:57:55;8.85;;;5.85;;
43803;SDS011;29430;52.924;-2.388;2023-04-15T08:02:47;6.75;;;5.40;;
43803;SDS011;29430;52.924;-2.388;2023-04-15T08:07:40;6.30;;;4.47;;
43803;SDS011;29430;52.924;-2.388;2023-04-15T08:12:31;5.63;;;4.35;;
43803;SDS011;29430;52.924;-2.388;2023-04-15T08:17:23;4.72;;;3.78;;
43803;SDS011;29430;52.924;-2.388;2023-04-15T08:22:15;5.75;;;3.70;;
43803;SDS011;29430;52.924;-2.388;2023-04-15T08:27:09;4.78;;;3.72;;
43803;SDS011;29430;52.924;-2.388;2023-04-15T08:32:01;5.43;;;3.25;;
43803;SDS011;29430;52.924;-2.388;2023-04-15T08:36:53;3.70;;;2.50;;
43803;SDS011;29430;52.924;-2.388;2023-04-15T08:41:45;3.05;;;1.90;;
43803;SDS011;29430;52.924;-2.388;2023-04-15T08:46:38;4.65;;;2.70;;
43803;SDS011;29430;52.924;-2.388;2023-04-15T08:51:32;3.60;;;2.38;;
43803;SDS011;29430;52.924;-2.388;2023-04-15T08:56:25;2.40;;;1.27;;
43803;SDS011;29430;52.924;-2.388;2023-04-15T09:01:18;3.15;;;1.30;;
43803;SDS011;29430;52.924;-2.388;2023-04-15T09:06:10;3.10;;;1.85;;
43803;SDS011;29430;52.924;-2.388;2023-04-15T09:11:02;3.08;;;2.20;;
43803;SDS011;29430;52.924;-2.388;2023-04-15T09:15:54;3.88;;;1.95;;
43803;SDS011;29430;52.924;-2.388;2023-04-15T09:20:46;2.30;;;1.20;;
43803;SDS011;29430;52.924;-2.388;2023-04-15T09:25:38;2.53;;;1.33;;
43803;SDS011;29430;52.924;-2.388;2023-04-15T09:30:32;1.70;;;0.80;;
43803;SDS011;29430;52.924;-2.388;2023-04-15T09:35:25;3.03;;;1.95;;
43803;SDS011;29430;52.924;-2.388;2023-04-15T09:40:31;2.22;;;1.27;;
43803;SDS011;29430;52.924;-2.388;2023-04-15T09:45:26;1.80;;;0.90;;
43803;SDS011;29430;52.924;-2.388;2023-04-15T09:50:20;2.47;;;1.25;;
43803;SDS011;29430;52.924;-2.388;2023-04-15T09:55:12;1.50;;;0.73;;
43803;SDS011;29430;52.924;-2.388;2023-04-15T10:00:07;1.92;;;0.80;;
43803;SDS011;29430;52.924;-2.388;2023-04-15T10:05:01;1.60;;;0.80;;
43803;SDS011;29430;52.924;-2.388;2023-04-15T10:09:53;2.78;;;1.13;;
43803;SDS011;29430;52.924;-2.388;2023-04-15T10:14:52;1.75;;;0.95;;
43803;SDS011;29430;52.924;-2.388;2023-04-15T10:19:55;2.55;;;1.30;;
43803;SDS011;29430;52.924;-2.388;2023-04-15T10:24:47;1.77;;;1.00;;
43803;SDS011;29430;52.924;-2.388;2023-04-15T10:29:40;2.42;;;0.98;;
43803;SDS011;29430;52.924;-2.388;2023-04-15T10:34:32;2.13;;;0.73;;
43803;SDS011;29430;52.924;-2.388;2023-04-15T10:39:38;1.52;;;0.70;;
43803;SDS011;29430;52.924;-2.388;2023-04-15T10:44:31;2.40;;;1.20;;
43803;SDS011;29430;52.924;-2.388;2023-04-15T10:49:23;2.50;;;1.05;;
43803;SDS011;29430;52.924;-2.388;2023-04-15T10:54:29;1.92;;;1.08;;
43803;SDS011;29430;52.924;-2.388;2023-04-15T10:59:22;1.92;;;0.90;;
43803;SDS011;29430;52.924;-2.388;2023-04-15T11:04:14;1.30;;;0.60;;
43803;SDS011;29430;52.924;-2.388;2023-04-15T11:09:05;1.95;;;1.00;;
43803;SDS011;29430;52.924;-2.388;2023-04-15T11:14:01;1.48;;;0.52;;
43803;SDS011;29430;52.924;-2.388;2023-04-15T11:18:54;1.10;;;0.50;;
43803;SDS011;29430;52.924;-2.388;2023-04-15T11:23:46;1.25;;;0.50;;
43803;SDS011;29430;52.924;-2.388;2023-04-15T11:28:38;2.35;;;0.70;;
43803;SDS011;29430;52.924;-2.388;2023-04-15T11:33:31;1.90;;;0.40;;
43803;SDS011;29430;52.924;-2.388;2023-04-15T11:38:23;2.08;;;0.85;;
43803;SDS011;29430;52.924;-2.388;2023-04-15T11:43:19;1.90;;;0.60;;
43803;SDS011;29430;52.924;-2.388;2023-04-15T11:48:12;2.00;;;0.60;;
43803;SDS011;29430;52.924;-2.388;2023-04-15T11:53:05;1.25;;;0.60;;
43803;SDS011;29430;52.924;-2.388;2023-04-15T11:58:06;1.52;;;0.70;;
43803;SDS011;29430;52.924;-2.388;2023-04-15T12:03:11;1.60;;;0.63;;
43803;SDS011;29430;52.924;-2.388;2023-04-15T12:08:09;2.90;;;0.70;;
43803;SDS011;29430;52.924;-2.388;2023-04-15T12:13:04;1.63;;;0.60;;
43803;SDS011;29430;52.924;-2.388;2023-04-15T12:17:57;2.17;;;0.70;;
43803;SDS011;29430;52.924;-2.388;2023-04-15T12:22:49;0.88;;;0.50;;
43803;SDS011;29430;52.924;-2.388;2023-04-15T12:27:40;2.10;;;0.40;;
43803;SDS011;29430;52.924;-2.388;2023-04-15T12:32:35;1.40;;;0.50;;
43803;SDS011;29430;52.924;-2.388;2023-04-15T12:37:27;2.38;;;0.30;;
43803;SDS011;29430;52.924;-2.388;2023-04-15T12:42:19;0.98;;;0.32;;
43803;SDS011;29430;52.924;-2.388;2023-04-15T12:47:11;0.88;;;0.40;;
43803;SDS011;29430;52.924;-2.388;2023-04-15T12:52:03;1.30;;;0.43;;
43803;SDS011;29430;52.924;-2.388;2023-04-15T12:56:55;1.25;;;0.40;;
43803;SDS011;29430;52.924;-2.388;2023-04-15T13:01:47;1.45;;;0.50;;
43803;SDS011;29430;52.924;-2.388;2023-04-15T13:06:39;1.23;;;0.50;;
43803;SDS011;29430;52.924;-2.388;2023-04-15T13:11:31;1.40;;;0.50;;
43803;SDS011;29430;52.924;-2.388;2023-04-15T13:16:24;1.98;;;0.40;;
43803;SDS011;29430;52.924;-2.388;2023-04-15T13:21:15;1.20;;;0.40;;
43803;SDS011;29430;52.924;-2.388;2023-04-15T13:26:08;0.95;;;0.40;;
43803;SDS011;29430;52.924;-2.388;2023-04-15T13:30:59;1.85;;;0.40;;
43803;SDS011;29430;52.924;-2.388;2023-04-15T13:35:51;1.30;;;0.50;;
43803;SDS011;29430;52.924;-2.388;2023-04-15T13:40:43;1.40;;;0.40;;
43803;SDS011;29430;52.924;-2.388;2023-04-15T13:45:34;1.55;;;0.50;;
43803;SDS011;29430;52.924;-2.388;2023-04-15T13:50:26;0.95;;;0.40;;
43803;SDS011;29430;52.924;-2.388;2023-04-15T13:55:18;1.00;;;0.40;;
43803;SDS011;29430;52.924;-2.388;2023-04-15T14:00:14;0.88;;;0.40;;
43803;SDS011;29430;52.924;-2.388;2023-04-15T14:05:05;1.20;;;0.57;;
43803;SDS011;29430;52.924;-2.388;2023-04-15T14:09:57;1.65;;;0.52;;
43803;SDS011;29430;52.924;-2.388;2023-04-15T14:14:50;1.35;;;0.47;;
43803;SDS011;29430;52.924;-2.388;2023-04-15T14:19:41;1.63;;;0.60;;
43803;SDS011;29430;52.924;-2.388;2023-04-15T14:24:33;1.95;;;0.60;;
43803;SDS011;29430;52.924;-2.388;2023-04-15T14:29:24;1.30;;;0.55;;
43803;SDS011;29430;52.924;-2.388;2023-04-15T14:34:16;1.33;;;0.60;;
43803;SDS011;29430;52.924;-2.388;2023-04-15T14:39:08;1.38;;;0.50;;
43803;SDS011;29430;52.924;-2.388;2023-04-15T14:43:59;2.25;;;0.70;;
43803;SDS011;29430;52.924;-2.388;2023-04-15T14:48:51;2.28;;;0.60;;
43803;SDS011;29430;52.924;-2.388;2023-04-15T14:53:43;1.83;;;0.65;;
43803;SDS011;29430;52.924;-2.388;2023-04-15T14:58:35;1.77;;;0.60;;
43803;SDS011;29430;52.924;-2.388;2023-04-15T15:03:27;1.25;;;0.47;;
43803;SDS011;29430;52.924;-2.388;2023-04-15T15:08:19;1.70;;;0.50;;
43803;SDS011;29430;52.924;-2.388;2023-04-15T15:13:11;2.10;;;0.60;;
43803;SDS011;29430;52.924;-2.388;2023-04-15T15:18:03;1.27;;;0.60;;
43803;SDS011;29430;52.924;-2.388;2023-04-15T15:22:55;1.50;;;0.50;;
43803;SDS011;29430;52.924;-2.388;2023-04-15T15:27:47;2.85;;;0.93;;
43803;SDS011;29430;52.924;-2.388;2023-04-15T15:32:39;2.17;;;0.60;;
43803;SDS011;29430;52.924;-2.388;2023-04-15T15:37:32;1.17;;;0.50;;
43803;SDS011;29430;52.924;-2.388;2023-04-15T15:42:24;1.75;;;0.60;;
43803;SDS011;29430;52.924;-2.388;2023-04-15T15:47:15;1.25;;;0.60;;
43803;SDS011;29430;52.924;-2.388;2023-04-15T15:52:07;1.73;;;0.60;;
43803;SDS011;29430;52.924;-2.388;2023-04-15T15:56:59;1.30;;;0.60;;
43803;SDS011;29430;52.924;-2.388;2023-04-15T16:01:50;1.63;;;0.60;;
43803;SDS011;29430;52.924;-2.388;2023-04-15T16:06:42;3.60;;;1.17;;
43803;SDS011;29430;52.924;-2.388;2023-04-15T16:11:35;1.77;;;0.68;;
43803;SDS011;29430;52.924;-2.388;2023-04-15T16:16:26;1.73;;;0.73;;
43803;SDS011;29430;52.924;-2.388;2023-04-15T16:21:20;1.60;;;0.70;;
43803;SDS011;29430;52.924;-2.388;2023-04-15T16:26:11;2.50;;;0.80;;
43803;SDS011;29430;52.924;-2.388;2023-04-15T16:31:03;3.47;;;1.15;;
43803;SDS011;29430;52.924;-2.388;2023-04-15T16:35:55;2.67;;;0.80;;
43803;SDS011;29430;52.924;-2.388;2023-04-15T16:40:46;2.00;;;0.80;;
43803;SDS011;29430;52.924;-2.388;2023-04-15T16:45:38;2.15;;;0.70;;
43803;SDS011;29430;52.924;-2.388;2023-04-15T16:50:29;2.60;;;0.60;;
43803;SDS011;29430;52.924;-2.388;2023-04-15T16:55:21;2.80;;;0.70;;
43803;SDS011;29430;52.924;-2.388;2023-04-15T17:00:13;1.60;;;0.65;;
43803;SDS011;29430;52.924;-2.388;2023-04-15T17:05:06;1.95;;;0.60;;
43803;SDS011;29430;52.924;-2.388;2023-04-15T17:09:58;2.08;;;0.60;;
43803;SDS011;29430;52.924;-2.388;2023-04-15T17:14:50;2.03;;;0.75;;
43803;SDS011;29430;52.924;-2.388;2023-04-15T17:19:41;2.05;;;0.60;;
43803;SDS011;29430;52.924;-2.388;2023-04-15T17:24:33;1.40;;;0.68;;
43803;SDS011;29430;52.924;-2.388;2023-04-15T17:29:25;1.98;;;0.70;;
43803;SDS011;29430;52.924;-2.388;2023-04-15T17:34:17;1.92;;;0.68;;
43803;SDS011;29430;52.924;-2.388;2023-04-15T17:39:09;4.32;;;1.10;;
43803;SDS011;29430;52.924;-2.388;2023-04-15T17:44:01;2.75;;;1.08;;
43803;SDS011;29430;52.924;-2.388;2023-04-15T17:48:53;3.05;;;1.10;;
43803;SDS011;29430;52.924;-2.388;2023-04-15T17:53:45;2.83;;;0.77;;
43803;SDS011;29430;52.924;-2.388;2023-04-15T17:58:37;2.17;;;0.77;;
43803;SDS011;29430;52.924;-2.388;2023-04-15T18:03:29;2.53;;;0.65;;
43803;SDS011;29430;52.924;-2.388;2023-04-15T18:08:21;2.40;;;0.75;;
43803;SDS011;29430;52.924;-2.388;2023-04-15T18:13:13;4.78;;;1.02;;
43803;SDS011;29430;52.924;-2.388;2023-04-15T18:18:04;2.83;;;0.85;;
43803;SDS011;29430;52.924;-2.388;2023-04-15T18:22:56;2.55;;;0.70;;
43803;SDS011;29430;52.924;-2.388;2023-04-15T18:27:48;4.50;;;1.48;;
43803;SDS011;29430;52.924;-2.388;2023-04-15T18:32:40;3.72;;;1.52;;
43803;SDS011;29430;52.924;-2.388;2023-04-15T18:37:31;2.90;;;1.10;;
43803;SDS011;29430;52.924;-2.388;2023-04-15T18:42:24;4.47;;;1.10;;
43803;SDS011;29430;52.924;-2.388;2023-04-15T18:47:16;2.28;;;0.70;;
43803;SDS011;29430;52.924;-2.388;2023-04-15T18:52:08;3.22;;;0.77;;
43803;SDS011;29430;52.924;-2.388;2023-04-15T18:57:00;2.53;;;0.88;;
43803;SDS011;29430;52.924;-2.388;2023-04-15T19:01:54;3.42;;;1.10;;
43803;SDS011;29430;52.924;-2.388;2023-04-15T19:06:46;3.28;;;1.10;;
43803;SDS011;29430;52.924;-2.388;2023-04-15T19:11:38;3.15;;;0.90;;
43803;SDS011;29430;52.924;-2.388;2023-04-15T19:16:29;2.08;;;0.80;;
43803;SDS011;29430;52.924;-2.388;2023-04-15T19:21:22;2.03;;;0.70;;
43803;SDS011;29430;52.924;-2.388;2023-04-15T19:26:13;2.08;;;0.80;;
43803;SDS011;29430;52.924;-2.388;2023-04-15T19:31:05;2.20;;;0.82;;
43803;SDS011;29430;52.924;-2.388;2023-04-15T19:36:01;3.88;;;1.30;;
43803;SDS011;29430;52.924;-2.388;2023-04-15T19:40:55;3.40;;;1.10;;
43803;SDS011;29430;52.924;-2.388;2023-04-15T19:45:47;4.22;;;1.48;;
43803;SDS011;29430;52.924;-2.388;2023-04-15T19:50:42;4.10;;;1.27;;
43803;SDS011;29430;52.924;-2.388;2023-04-15T19:55:34;2.53;;;1.13;;
43803;SDS011;29430;52.924;-2.388;2023-04-15T20:00:26;1.92;;;0.80;;
43803;SDS011;29430;52.924;-2.388;2023-04-15T20:05:17;2.65;;;0.93;;
43803;SDS011;29430;52.924;-2.388;2023-04-15T20:10:09;2.63;;;0.80;;
43803;SDS011;29430;52.924;-2.388;2023-04-15T20:15:03;3.13;;;1.10;;
43803;SDS011;29430;52.924;-2.388;2023-04-15T20:19:56;3.85;;;1.42;;
43803;SDS011;29430;52.924;-2.388;2023-04-15T20:24:48;2.25;;;1.10;;
43803;SDS011;29430;52.924;-2.388;2023-04-15T20:29:39;2.13;;;0.95;;
43803;SDS011;29430;52.924;-2.388;2023-04-15T20:34:31;2.97;;;1.27;;
43803;SDS011;29430;52.924;-2.388;2023-04-15T20:39:23;4.43;;;1.50;;
43803;SDS011;29430;52.924;-2.388;2023-04-15T20:44:15;2.75;;;1.30;;
43803;SDS011;29430;52.924;-2.388;2023-04-15T20:49:07;2.97;;;1.35;;
43803;SDS011;29430;52.924;-2.388;2023-04-15T20:53:58;2.78;;;1.58;;
43803;SDS011;29430;52.924;-2.388;2023-04-15T20:58:50;2.83;;;1.27;;
43803;SDS011;29430;52.924;-2.388;2023-04-15T21:03:41;3.53;;;1.20;;
43803;SDS011;29430;52.924;-2.388;2023-04-15T21:08:33;3.90;;;1.60;;
43803;SDS011;29430;52.924;-2.388;2023-04-15T21:13:25;3.03;;;1.38;;
43803;SDS011;29430;52.924;-2.388;2023-04-15T21:18:16;3.95;;;1.40;;
43803;SDS011;29430;52.924;-2.388;2023-04-15T21:23:08;2.20;;;0.98;;
43803;SDS011;29430;52.924;-2.388;2023-04-15T21:28:03;3.70;;;1.20;;
43803;SDS011;29430;52.924;-2.388;2023-04-15T21:32:55;2.95;;;1.50;;
43803;SDS011;29430;52.924;-2.388;2023-04-15T21:37:46;3.53;;;1.38;;
43803;SDS011;29430;52.924;-2.388;2023-04-15T21:42:38;2.70;;;1.23;;
43803;SDS011;29430;52.924;-2.388;2023-04-15T21:47:30;2.88;;;1.55;;
43803;SDS011;29430;52.924;-2.388;2023-04-15T21:52:41;2.80;;;1.33;;
43803;SDS011;29430;52.924;-2.388;2023-04-15T21:57:33;2.40;;;1.00;;
43803;SDS011;29430;52.924;-2.388;2023-04-15T22:02:25;2.90;;;1.13;;
43803;SDS011;29430;52.924;-2.388;2023-04-15T22:07:17;4.22;;;1.20;;
43803;SDS011;29430;52.924;-2.388;2023-04-15T22:12:08;3.38;;;2.00;;
43803;SDS011;29430;52.924;-2.388;2023-04-15T22:17:00;4.03;;;1.98;;
43803;SDS011;29430;52.924;-2.388;2023-04-15T22:21:52;3.78;;;1.75;;
43803;SDS011;29430;52.924;-2.388;2023-04-15T22:26:43;2.95;;;1.42;;
43803;SDS011;29430;52.924;-2.388;2023-04-15T22:31:35;4.70;;;1.70;;
43803;SDS011;29430;52.924;-2.388;2023-04-15T22:36:27;3.03;;;1.48;;
43803;SDS011;29430;52.924;-2.388;2023-04-15T22:41:21;2.65;;;1.20;;
43803;SDS011;29430;52.924;-2.388;2023-04-15T22:46:12;3.47;;;1.67;;
43803;SDS011;29430;52.924;-2.388;2023-04-15T22:51:04;3.10;;;1.50;;
43803;SDS011;29430;52.924;-2.388;2023-04-15T22:55:56;2.92;;;1.58;;
43803;SDS011;29430;52.924;-2.388;2023-04-15T23:00:48;3.20;;;1.55;;
43803;SDS011;29430;52.924;-2.388;2023-04-15T23:05:40;6.07;;;1.60;;
43803;SDS011;29430;52.924;-2.388;2023-04-15T23:10:32;2.88;;;1.67;;
43803;SDS011;29430;52.924;-2.388;2023-04-15T23:15:24;4.43;;;1.98;;
43803;SDS011;29430;52.924;-2.388;2023-04-15T23:20:15;2.60;;;1.30;;
43803;SDS011;29430;52.924;-2.388;2023-04-15T23:25:07;3.33;;;1.77;;
43803;SDS011;29430;52.924;-2.388;2023-04-15T23:29:59;2.72;;;1.20;;
43803;SDS011;29430;52.924;-2.388;2023-04-15T23:34:51;3.13;;;1.58;;
43803;SDS011;29430;52.924;-2.388;2023-04-15T23:39:43;3.65;;;1.80;;
43803;SDS011;29430;52.924;-2.388;2023-04-15T23:44:35;4.22;;;1.40;;
43803;SDS011;29430;52.924;-2.388;2023-04-15T23:49:28;2.53;;;1.15;;
43803;SDS011;29430;52.924;-2.388;2023-04-15T23:54:20;3.42;;;1.23;;
43803;SDS011;29430;52.924;-2.388;2023-04-15T23:59:11;2.85;;;1.20;;
